Time;durP1;ratioP1;P1;durP2;ratioP2;P2;SDS_P1;SDS_P2;PMS_P1;PMS_P2;Temp;Humidity;BMP_temperature;BMP_pressure;BME280_temperature;BME280_humidity;BME280_pressure;Samples;Min_cycle;Max_cycle;Signal;HPM_P1;HPM_P2
2023/08/09 00:02:21;;;;;;;;;;;;;;;18.94;46.15;101030.38;5028650;28;20293;-85
2023/08/09 00:04:46;;;;;;;;;;;;;;;18.89;46.44;101035.91;5024827;28;19929;-86
2023/08/09 00:07:11;;;;;;;;;;;;;;;18.88;46.22;101031.59;5026342;28;20335;-87
2023/08/09 00:09:37;;;;;;;;;;;;;;;18.82;46.40;101038.19;5026580;28;20436;-87
2023/08/09 00:12:03;;;;;;;;;;;;;;;18.78;46.67;101028.22;5024212;28;20282;-86
2023/08/09 00:14:28;;;;;;;;;;;;;;;18.75;46.62;101032.34;5004539;28;20351;-86
2023/08/09 00:16:54;;;;;;;;;;;;;;;18.70;46.74;101038.66;5024769;28;19944;-86
2023/08/09 00:19:19;;;;;;;;;;;;;;;18.65;46.74;101041.44;5019794;28;19932;-86
2023/08/09 00:21:46;;;;;;;;;;;;;;;18.54;47.07;101039.16;5025090;28;19923;-86
2023/08/09 00:24:11;;;;;;;;;;;;;;;18.54;47.21;101041.88;5024589;28;20503;-86
2023/08/09 00:26:37;;;;;;;;;;;;;;;18.53;47.04;101038.34;5025020;28;19921;-86
2023/08/09 00:29:02;;;;;;;;;;;;;;;18.51;47.06;101039.75;5020288;28;19983;-87
2023/08/09 00:31:27;;;;;;;;;;;;;;;18.49;47.16;101036.50;5025715;28;19917;-87
2023/08/09 00:33:53;;;;;;;;;;;;;;;18.49;47.05;101037.31;5026270;28;19917;-86
2023/08/09 00:36:18;;;;;;;;;;;;;;;18.44;47.07;101040.09;5023847;28;19917;-86
2023/08/09 00:38:43;;;;;;;;;;;;;;;18.37;47.21;101035.03;5022449;28;20290;-86
2023/08/09 00:41:09;;;;;;;;;;;;;;;18.34;47.56;101038.34;5020473;28;20427;-87
2023/08/09 00:43:34;;;;;;;;;;;;;;;18.32;47.43;101035.13;5024024;28;19925;-86
2023/08/09 00:46:00;;;;;;;;;;;;;;;18.32;47.59;101034.31;5023146;28;20413;-86
2023/08/09 00:48:25;;;;;;;;;;;;;;;18.29;47.52;101032.97;5022008;28;20423;-86
2023/08/09 00:50:51;;;;;;;;;;;;;;;18.27;47.56;101037.06;5022357;28;20512;-86
2023/08/09 00:53:16;;;;;;;;;;;;;;;18.24;47.51;101033.03;5022445;28;19921;-86
2023/08/09 00:55:41;;;;;;;;;;;;;;;18.26;47.55;101038.19;5021089;28;19940;-87
2023/08/09 00:58:07;;;;;;;;;;;;;;;18.24;47.82;101035.75;5027297;28;19917;-87
2023/08/09 01:00:32;;;;;;;;;;;;;;;18.23;47.78;101036.84;5026002;28;20336;-87
2023/08/09 01:02:59;;;;;;;;;;;;;;;18.23;47.87;101034.16;5022756;28;19924;-87
2023/08/09 01:05:29;;;;;;;;;;;;;;;18.21;47.96;101043.69;5030150;28;19948;-87
2023/08/09 01:08:21;;;;;;;;;;;;;;;18.21;47.85;101046.38;5022353;28;19963;-87
2023/08/09 01:10:51;;;;;;;;;;;;;;;18.11;48.04;101040.00;5020706;28;19917;-87
2023/08/09 01:13:19;;;;;;;;;;;;;;;18.12;47.95;101035.38;5025040;28;19963;-87
2023/08/09 01:15:45;;;;;;;;;;;;;;;18.09;48.07;101038.66;5017044;28;20288;-86
2023/08/09 01:18:11;;;;;;;;;;;;;;;18.04;48.18;101044.97;5021407;28;19936;-86
2023/08/09 01:20:37;;;;;;;;;;;;;;;18.00;48.34;101037.72;5022348;28;20474;-87
2023/08/09 01:23:03;;;;;;;;;;;;;;;17.99;48.40;101047.75;5019900;28;20408;-86
2023/08/09 01:25:32;;;;;;;;;;;;;;;17.98;48.28;101042.63;5021522;28;19956;-86
2023/08/09 01:27:57;;;;;;;;;;;;;;;17.96;48.43;101039.41;5024167;28;19917;-87
2023/08/09 01:30:23;;;;;;;;;;;;;;;17.92;48.54;101047.28;5025524;28;19921;-87
2023/08/09 01:32:49;;;;;;;;;;;;;;;17.93;48.71;101039.94;5025586;28;19917;-87
2023/08/09 01:35:15;;;;;;;;;;;;;;;17.96;48.55;101048.34;5022337;28;19927;-87
2023/08/09 01:37:41;;;;;;;;;;;;;;;17.99;48.35;101041.53;5019177;28;19928;-87
2023/08/09 01:40:09;;;;;;;;;;;;;;;18.00;48.42;101033.09;5027310;28;19929;-86
2023/08/09 01:42:39;;;;;;;;;;;;;;;17.96;48.49;101037.50;5026855;28;19945;-87
2023/08/09 01:45:05;;;;;;;;;;;;;;;17.94;48.42;101044.28;5024240;28;19921;-87
2023/08/09 01:47:32;;;;;;;;;;;;;;;17.96;48.50;101052.97;5023526;28;19917;-88
2023/08/09 01:49:57;;;;;;;;;;;;;;;17.92;48.45;101050.00;5026198;28;19924;-87
2023/08/09 01:52:23;;;;;;;;;;;;;;;17.88;48.59;101050.88;5005887;28;20435;-88
2023/08/09 01:54:48;;;;;;;;;;;;;;;17.87;48.58;101049.25;5023599;28;19917;-87
2023/08/09 01:57:14;;;;;;;;;;;;;;;17.85;48.57;101054.16;5007398;28;19928;-86
2023/08/09 01:59:39;;;;;;;;;;;;;;;17.82;48.53;101052.84;5021542;28;19921;-86
2023/08/09 02:02:05;;;;;;;;;;;;;;;17.82;48.69;101052.84;5012411;28;19921;-87
2023/08/09 02:04:30;;;;;;;;;;;;;;;17.81;48.73;101045.81;5024515;28;19917;-86
2023/08/09 02:06:55;;;;;;;;;;;;;;;17.84;48.82;101047.13;5027425;28;20471;-87
2023/08/09 02:09:21;;;;;;;;;;;;;;;17.87;48.90;101054.66;5024888;28;19917;-87
2023/08/09 02:11:46;;;;;;;;;;;;;;;17.92;48.89;101062.75;5024517;28;19995;-87
2023/08/09 02:14:11;;;;;;;;;;;;;;;17.94;48.75;101057.84;5020336;28;20408;-87
2023/08/09 02:16:37;;;;;;;;;;;;;;;17.92;48.81;101057.31;5020382;28;19921;-86
2023/08/09 02:19:03;;;;;;;;;;;;;;;17.93;48.98;101059.75;5027090;28;19925;-87
2023/08/09 02:21:28;;;;;;;;;;;;;;;17.98;48.95;101050.75;5023524;28;19917;-88
2023/08/09 02:23:53;;;;;;;;;;;;;;;17.99;48.90;101058.59;5028377;28;19913;-86
2023/08/09 02:26:18;;;;;;;;;;;;;;;18.02;48.70;101055.31;5024690;28;19921;-87
2023/08/09 02:28:45;;;;;;;;;;;;;;;18.05;48.60;101057.44;5020728;28;19927;-86
2023/08/09 02:31:10;;;;;;;;;;;;;;;18.01;48.64;101056.41;5022307;28;19920;-86
2023/08/09 02:33:36;;;;;;;;;;;;;;;18.01;48.72;101055.59;5023157;28;19979;-87
2023/08/09 02:36:02;;;;;;;;;;;;;;;18.01;48.67;101047.47;5004035;28;20000;-86
2023/08/09 02:38:28;;;;;;;;;;;;;;;18.03;48.73;101056.09;5022590;28;19924;-86
2023/08/09 02:40:54;;;;;;;;;;;;;;;18.01;48.60;101045.56;5024153;28;20312;-86
2023/08/09 02:43:20;;;;;;;;;;;;;;;17.99;48.63;101047.75;5025317;28;20444;-86
2023/08/09 02:45:45;;;;;;;;;;;;;;;17.96;48.63;101047.53;5023298;28;19929;-85
2023/08/09 02:48:11;;;;;;;;;;;;;;;17.94;48.67;101049.69;5025042;28;20305;-87
2023/08/09 02:50:36;;;;;;;;;;;;;;;17.93;48.66;101053.50;5010041;28;19925;-86
2023/08/09 02:53:03;;;;;;;;;;;;;;;17.93;48.66;101053.50;5024094;28;19925;-86
2023/08/09 02:55:28;;;;;;;;;;;;;;;17.93;48.62;101050.78;5021294;28;19917;-85
2023/08/09 02:57:54;;;;;;;;;;;;;;;17.93;48.81;101048.09;5026565;28;19929;-86
2023/08/09 03:00:19;;;;;;;;;;;;;;;17.94;48.45;101053.22;5010016;28;19921;-85
2023/08/09 03:02:44;;;;;;;;;;;;;;;17.92;48.66;101055.41;5025817;28;19927;-86
2023/08/09 03:05:10;;;;;;;;;;;;;;;17.91;48.69;101053.00;5024787;28;19929;-86
2023/08/09 03:07:38;;;;;;;;;;;;;;;17.90;48.68;101054.09;5014749;28;19921;-86
2023/08/09 03:10:03;;;;;;;;;;;;;;;17.87;48.59;101058.19;5022721;28;20536;-86
2023/08/09 03:12:29;;;;;;;;;;;;;;;17.85;48.61;101051.44;5028935;28;20017;-87
2023/08/09 03:14:55;;;;;;;;;;;;;;;17.84;48.83;101060.69;5025319;28;20732;-86
2023/08/09 03:17:20;;;;;;;;;;;;;;;17.83;48.81;101059.06;5012330;28;19917;-86
2023/08/09 03:19:46;;;;;;;;;;;;;;;17.81;48.72;101065.59;5005121;28;19928;-87
2023/08/09 03:22:11;;;;;;;;;;;;;;;17.79;48.59;101067.78;5017478;28;19959;-86
2023/08/09 03:24:37;;;;;;;;;;;;;;;17.74;48.51;101070.53;5026134;28;19967;-87
2023/08/09 03:27:03;;;;;;;;;;;;;;;17.69;48.54;101073.31;5024539;28;19925;-86
2023/08/09 03:29:28;;;;;;;;;;;;;;;17.63;48.40;101076.31;5024556;28;19917;-87
2023/08/09 03:31:53;;;;;;;;;;;;;;;17.52;48.70;101070.19;5023303;28;19924;-86
2023/08/09 03:34:19;;;;;;;;;;;;;;;17.47;48.89;101083.78;5029013;28;19923;-87
2023/08/09 03:36:44;;;;;;;;;;;;;;;17.45;49.06;101088.69;5025706;28;19929;-86
2023/08/09 03:39:11;;;;;;;;;;;;;;;17.46;49.00;101087.59;5029435;28;19929;-86
2023/08/09 03:41:36;;;;;;;;;;;;;;;17.45;49.10;101092.22;5028029;28;19924;-87
2023/08/09 03:44:01;;;;;;;;;;;;;;;17.47;49.13;101090.03;5026189;28;19921;-86
2023/08/09 03:46:27;;;;;;;;;;;;;;;17.51;49.16;101088.34;5020691;28;19924;-87
2023/08/09 03:48:52;;;;;;;;;;;;;;;17.55;49.17;101090.47;5018656;28;19918;-87
2023/08/09 03:51:17;;;;;;;;;;;;;;;17.59;49.13;101095.03;5021749;28;19928;-86
2023/08/09 03:53:43;;;;;;;;;;;;;;;17.57;49.12;101102.66;5017540;28;20562;-86
2023/08/09 03:56:08;;;;;;;;;;;;;;;17.58;49.04;101096.13;5027747;28;20356;-86
2023/08/09 03:58:33;;;;;;;;;;;;;;;17.59;49.03;101092.31;5034285;28;19924;-87
2023/08/09 04:00:59;;;;;;;;;;;;;;;17.58;49.08;101101.53;5020015;28;20304;-86
2023/08/09 04:03:24;;;;;;;;;;;;;;;17.60;49.40;101104.81;5026279;28;20002;-86
2023/08/09 04:05:49;;;;;;;;;;;;;;;17.66;49.26;101108.25;5020880;28;19917;-87
2023/08/09 04:08:15;;;;;;;;;;;;;;;17.69;49.11;101111.22;5028447;28;19928;-86
2023/08/09 04:10:40;;;;;;;;;;;;;;;17.70;49.27;101104.72;5026265;28;19917;-86
2023/08/09 04:13:05;;;;;;;;;;;;;;;17.77;49.22;101107.91;5026691;28;19922;-87
2023/08/09 04:15:31;;;;;;;;;;;;;;;17.83;49.11;101113.28;5027222;28;20450;-87
2023/08/09 04:17:56;;;;;;;;;;;;;;;17.88;49.08;101113.22;5023215;28;19926;-86
2023/08/09 04:20:22;;;;;;;;;;;;;;;17.92;49.07;101112.34;5021008;28;19925;-87
2023/08/09 04:22:47;;;;;;;;;;;;;;;17.98;48.98;101118.53;5025514;28;20387;-87
2023/08/09 04:25:13;;;;;;;;;;;;;;;18.04;48.93;101120.09;5025734;28;19921;-86
2023/08/09 04:27:41;;;;;;;;;;;;;;;18.07;48.88;101111.38;5026993;28;19917;-87
2023/08/09 04:30:09;;;;;;;;;;;;;;;18.08;49.03;101121.91;5028162;28;19922;-86
2023/08/09 04:32:34;;;;;;;;;;;;;;;18.12;49.15;101122.13;5023644;28;20499;-87
2023/08/09 04:35:00;;;;;;;;;;;;;;;18.17;49.09;101129.44;5023231;28;20008;-87
2023/08/09 04:37:27;;;;;;;;;;;;;;;18.24;49.14;101125.25;5027070;28;19921;-86
2023/08/09 04:39:52;;;;;;;;;;;;;;;18.31;48.89;101124.91;5023686;28;19922;-87
2023/08/09 04:42:18;;;;;;;;;;;;;;;18.37;48.91;101123.75;5029721;28;19924;-86
2023/08/09 04:44:43;;;;;;;;;;;;;;;18.39;48.70;101132.41;5024785;28;19925;-86
2023/08/09 04:47:09;;;;;;;;;;;;;;;18.39;48.81;101127.78;5008133;28;19925;-85
2023/08/09 04:49:35;;;;;;;;;;;;;;;18.43;49.10;101126.09;5021231;28;19924;-87
2023/08/09 04:52:00;;;;;;;;;;;;;;;18.49;49.11;101137.72;5025417;28;19921;-86
2023/08/09 04:54:25;;;;;;;;;;;;;;;18.56;48.92;101134.63;5026163;28;20060;-86
2023/08/09 04:56:51;;;;;;;;;;;;;;;18.58;49.11;101135.16;5024654;28;19921;-86
2023/08/09 04:59:16;;;;;;;;;;;;;;;18.65;48.80;101135.59;5025009;28;19927;-86
2023/08/09 05:01:41;;;;;;;;;;;;;;;18.70;48.97;101135.56;5031738;28;19917;-86
2023/08/09 05:04:07;;;;;;;;;;;;;;;18.78;48.88;101139.50;5033495;28;20372;-87
2023/08/09 05:06:33;;;;;;;;;;;;;;;18.79;48.77;101135.69;5021328;28;19917;-87
2023/08/09 05:08:58;;;;;;;;;;;;;;;18.83;48.64;101140.22;5010953;28;19917;-86
2023/08/09 05:11:23;;;;;;;;;;;;;;;18.79;48.92;101139.22;5023420;28;19916;-86
2023/08/09 05:13:49;;;;;;;;;;;;;;;18.80;48.81;101142.72;5026492;28;20412;-86
2023/08/09 05:16:14;;;;;;;;;;;;;;;18.78;48.99;101140.31;5001456;28;19930;-86
2023/08/09 05:18:39;;;;;;;;;;;;;;;18.84;48.86;101141.84;5024136;28;19929;-86
2023/08/09 05:21:05;;;;;;;;;;;;;;;18.89;48.64;101141.00;5020824;28;19931;-87
2023/08/09 05:23:31;;;;;;;;;;;;;;;18.90;48.73;101135.25;5023404;28;19957;-87
2023/08/09 05:25:56;;;;;;;;;;;;;;;18.94;48.71;101143.63;5027655;28;20385;-86
2023/08/09 05:28:21;;;;;;;;;;;;;;;18.98;48.66;101141.91;5027348;28;19960;-87
2023/08/09 05:30:47;;;;;;;;;;;;;;;19.06;48.77;101140.47;5021983;28;19917;-86
2023/08/09 05:33:12;;;;;;;;;;;;;;;19.13;49.26;101151.75;5024286;28;19921;-86
2023/08/09 05:35:37;;;;;;;;;;;;;;;19.25;48.64;101155.63;5023981;28;19936;-86
2023/08/09 05:38:03;;;;;;;;;;;;;;;19.37;48.46;101141.56;5009544;28;20504;-86
2023/08/09 05:40:28;;;;;;;;;;;;;;;19.38;48.66;101148.63;5031041;28;19967;-86
2023/08/09 05:42:53;;;;;;;;;;;;;;;19.50;48.76;101148.97;5028293;28;19917;-86
2023/08/09 05:45:19;;;;;;;;;;;;;;;19.64;48.26;101161.81;5028033;28;19917;-87
2023/08/09 05:47:44;;;;;;;;;;;;;;;19.70;48.17;101164.13;5029211;28;19916;-85
2023/08/09 05:50:10;;;;;;;;;;;;;;;19.76;48.07;101171.13;5027546;28;20435;-86
2023/08/09 05:52:37;;;;;;;;;;;;;;;19.84;47.78;101175.06;5023960;28;20270;-86
2023/08/09 05:55:03;;;;;;;;;;;;;;;19.90;47.88;101177.38;5027226;28;19925;-86
2023/08/09 05:57:28;;;;;;;;;;;;;;;19.98;47.84;101172.34;5025535;28;19918;-86
2023/08/09 05:59:54;;;;;;;;;;;;;;;20.07;47.73;101176.78;5029441;28;19928;-85
2023/08/09 06:02:19;;;;;;;;;;;;;;;20.18;47.84;101182.84;5024118;28;20004;-86
2023/08/09 06:04:44;;;;;;;;;;;;;;;20.29;47.55;101178.81;5027118;28;20027;-86
2023/08/09 06:07:10;;;;;;;;;;;;;;;20.41;47.26;101181.84;5028563;28;19917;-84
2023/08/09 06:09:35;;;;;;;;;;;;;;;20.46;47.34;101175.50;5025263;28;19929;-86
2023/08/09 06:12:04;;;;;;;;;;;;;;;20.55;47.29;101184.56;5028201;28;19925;-85
2023/08/09 06:14:29;;;;;;;;;;;;;;;20.59;46.91;101188.28;5027002;28;19921;-85
2023/08/09 06:16:56;;;;;;;;;;;;;;;20.66;47.39;101183.25;5024431;28;20554;-85
2023/08/09 06:19:21;;;;;;;;;;;;;;;20.77;46.74;101181.91;5028884;28;20001;-85
2023/08/09 06:21:46;;;;;;;;;;;;;;;20.88;46.28;101181.69;5027647;28;19917;-86
2023/08/09 06:24:11;;;;;;;;;;;;;;;20.93;46.46;101176.94;5022900;28;19925;-86
2023/08/09 06:26:37;;;;;;;;;;;;;;;21.04;46.22;101177.53;5009079;28;20407;-86
2023/08/09 06:29:02;;;;;;;;;;;;;;;21.15;46.07;101173.44;5012058;28;19972;-87
2023/08/09 06:31:28;;;;;;;;;;;;;;;21.23;45.79;101175.44;5029942;28;19917;-86
2023/08/09 06:33:54;;;;;;;;;;;;;;;21.42;45.47;101173.34;5006485;28;19917;-86
2023/08/09 06:36:19;;;;;;;;;;;;;;;21.54;45.35;101185.59;5027277;28;20017;-83
2023/08/09 06:38:44;;;;;;;;;;;;;;;21.69;45.15;101183.28;5019971;28;19948;-84
2023/08/09 06:41:09;;;;;;;;;;;;;;;21.79;44.93;101175.97;5022752;28;19956;-84
2023/08/09 06:43:35;;;;;;;;;;;;;;;21.86;44.69;101177.13;5021062;28;20353;-84
2023/08/09 06:46:00;;;;;;;;;;;;;;;21.93;44.39;101182.97;5019863;28;19924;-84
2023/08/09 06:48:29;;;;;;;;;;;;;;;21.83;44.27;101188.66;5027699;28;19927;-86
2023/08/09 06:50:54;;;;;;;;;;;;;;;21.77;44.45;101195.38;5026471;28;19924;-87
2023/08/09 06:53:20;;;;;;;;;;;;;;;21.76;44.43;101193.78;5022307;28;19925;-85
2023/08/09 06:55:45;;;;;;;;;;;;;;;21.85;44.61;101197.34;5019957;28;19925;-85
2023/08/09 06:58:10;;;;;;;;;;;;;;;22.03;44.56;101203.69;5021514;28;19925;-86
2023/08/09 07:00:37;;;;;;;;;;;;;;;22.20;44.05;101200.25;5006381;28;19925;-86
2023/08/09 07:03:02;;;;;;;;;;;;;;;22.25;43.38;101202.84;5022966;28;19956;-85
2023/08/09 07:05:27;;;;;;;;;;;;;;;22.25;43.45;101202.84;5023116;28;19975;-86
2023/08/09 07:07:54;;;;;;;;;;;;;;;22.26;43.34;101201.72;5022899;28;19924;-86
2023/08/09 07:10:19;;;;;;;;;;;;;;;22.28;43.44;101191.31;5008692;28;19941;-86
2023/08/09 07:12:45;;;;;;;;;;;;;;;22.24;43.29;101202.03;5002408;28;20375;-85
2023/08/09 07:15:11;;;;;;;;;;;;;;;22.25;43.36;101211.03;5008966;28;21726;-85
2023/08/09 07:17:37;;;;;;;;;;;;;;;22.26;43.53;101207.19;5026411;28;19929;-86
2023/08/09 07:20:07;;;;;;;;;;;;;;;22.31;43.25;101204.34;5009116;28;19929;-85
2023/08/09 07:22:32;;;;;;;;;;;;;;;22.29;43.07;101195.66;5001478;28;19972;-85
2023/08/09 07:24:58;;;;;;;;;;;;;;;22.37;43.45;101208.53;5025796;28;20403;-86
2023/08/09 07:27:23;;;;;;;;;;;;;;;22.50;43.36;101207.59;5027220;28;19921;-85
2023/08/09 07:29:48;;;;;;;;;;;;;;;22.71;43.30;101213.28;5019396;28;19921;-84
2023/08/09 07:32:14;;;;;;;;;;;;;;;22.91;42.85;101223.63;5024065;28;19939;-84
2023/08/09 07:34:39;;;;;;;;;;;;;;;22.91;42.61;101222.81;5025485;28;20439;-85
2023/08/09 07:37:05;;;;;;;;;;;;;;;22.93;42.84;101226.03;5008243;28;19929;-85
2023/08/09 07:39:31;;;;;;;;;;;;;;;23.05;42.75;101230.88;5021349;28;19921;-85
2023/08/09 07:41:56;;;;;;;;;;;;;;;23.11;42.56;101237.78;5022566;28;20400;-85
2023/08/09 07:44:21;;;;;;;;;;;;;;;23.18;42.54;101236.19;5022230;28;20028;-85
2023/08/09 07:46:47;;;;;;;;;;;;;;;23.24;41.88;101233.28;5020333;28;20004;-85
2023/08/09 07:49:12;;;;;;;;;;;;;;;23.15;42.10;101239.56;5024687;28;20011;-85
2023/08/09 07:51:37;;;;;;;;;;;;;;;23.19;42.40;101251.47;5019700;28;19932;-85
2023/08/09 07:54:03;;;;;;;;;;;;;;;23.22;42.26;101247.28;5021102;28;19932;-85
2023/08/09 07:56:28;;;;;;;;;;;;;;;23.20;41.77;101244.88;5007588;28;19924;-85
2023/08/09 07:58:54;;;;;;;;;;;;;;;23.16;42.01;101256.75;5022465;28;20436;-85
2023/08/09 08:01:19;;;;;;;;;;;;;;;23.21;41.70;101246.50;5026883;28;19917;-86
2023/08/09 08:03:44;;;;;;;;;;;;;;;23.23;41.71;101248.09;5023607;28;19921;-85
2023/08/09 08:06:10;;;;;;;;;;;;;;;23.23;41.75;101256.28;5026231;28;20415;-85
2023/08/09 08:08:35;;;;;;;;;;;;;;;23.33;41.07;101255.97;5020346;28;19921;-85
2023/08/09 08:11:00;;;;;;;;;;;;;;;23.32;41.38;101255.16;5028162;28;19927;-85
2023/08/09 08:13:26;;;;;;;;;;;;;;;23.39;41.38;101260.97;5019713;28;20007;-85
2023/08/09 08:15:52;;;;;;;;;;;;;;;23.49;41.17;101259.81;5024328;28;20184;-85
2023/08/09 08:18:17;;;;;;;;;;;;;;;23.46;41.07;101266.75;5023307;28;19964;-85
2023/08/09 08:20:43;;;;;;;;;;;;;;;23.41;41.09;101272.38;5027508;28;19964;-85
2023/08/09 08:23:08;;;;;;;;;;;;;;;23.43;41.14;101272.06;5025692;28;20008;-85
2023/08/09 08:25:33;;;;;;;;;;;;;;;23.45;40.84;101270.59;5024720;28;19928;-82
2023/08/09 08:27:59;;;;;;;;;;;;;;;23.45;40.45;101275.28;5016732;28;19952;-85
2023/08/09 08:30:24;;;;;;;;;;;;;;;23.34;40.59;101276.72;5022114;28;19925;-85
2023/08/09 08:32:51;;;;;;;;;;;;;;;23.30;40.57;101276.53;5020558;28;19921;-83
2023/08/09 08:35:24;;;;;;;;;;;;;;;23.34;40.66;101271.25;5021792;28;19975;-84
2023/08/09 08:37:50;;;;;;;;;;;;;;;23.44;40.38;101276.41;5018234;28;19928;-84
2023/08/09 08:40:20;;;;;;;;;;;;;;;23.48;40.38;101289.09;5015006;28;19928;-84
2023/08/09 08:42:47;;;;;;;;;;;;;;;23.52;40.29;101292.03;5005165;28;19968;-83
2023/08/09 08:45:14;;;;;;;;;;;;;;;23.60;40.46;101283.03;5021699;28;19941;-84
2023/08/09 08:47:40;;;;;;;;;;;;;;;23.69;40.32;101281.06;5025986;28;20004;-84
2023/08/09 08:50:06;;;;;;;;;;;;;;;23.71;40.12;101280.78;5016271;28;20021;-83
2023/08/09 08:52:33;;;;;;;;;;;;;;;23.70;40.22;101282.72;5007405;28;19932;-84
2023/08/09 08:54:58;;;;;;;;;;;;;;;23.66;40.01;101281.72;5018173;28;20337;-84
2023/08/09 08:57:24;;;;;;;;;;;;;;;23.68;40.10;101295.06;5006487;28;20004;-84
2023/08/09 08:59:49;;;;;;;;;;;;;;;23.77;40.26;101299.44;5019515;28;19921;-84
2023/08/09 09:02:15;;;;;;;;;;;;;;;23.79;40.13;101291.69;5000808;28;19917;-84
2023/08/09 09:04:41;;;;;;;;;;;;;;;23.84;39.67;101303.59;5018353;28;19918;-84
2023/08/09 09:07:06;;;;;;;;;;;;;;;23.79;39.77;101313.59;5015776;28;20340;-83
2023/08/09 09:09:32;;;;;;;;;;;;;;;23.83;39.79;101307.47;5020600;28;19936;-83
2023/08/09 09:12:00;;;;;;;;;;;;;;;23.76;39.61;101308.75;5003968;28;20384;-83
2023/08/09 09:14:25;;;;;;;;;;;;;;;23.80;39.75;101303.44;5023974;28;19928;-83
2023/08/09 09:16:51;;;;;;;;;;;;;;;23.88;39.78;101315.50;5019695;28;19921;-83
2023/08/09 09:19:16;;;;;;;;;;;;;;;23.92;39.63;101311.81;5018204;28;19917;-82
2023/08/09 09:21:42;;;;;;;;;;;;;;;24.01;39.42;101315.31;5016631;28;20459;-83
2023/08/09 09:24:09;;;;;;;;;;;;;;;24.17;39.49;101318.34;5019479;28;19913;-83
2023/08/09 09:26:35;;;;;;;;;;;;;;;24.20;39.38;101316.88;5018090;28;19917;-83
2023/08/09 09:29:00;;;;;;;;;;;;;;;24.25;39.29;101314.81;5021637;28;19913;-83
2023/08/09 09:31:52;;;;;;;;;;;;;;;24.24;39.08;101326.09;5023003;28;19922;-84
2023/08/09 09:34:26;;;;;;;;;;;;;;;24.34;39.28;101323.81;5016404;28;21361;-83
2023/08/09 09:36:51;;;;;;;;;;;;;;;24.43;39.16;101336.69;5020783;28;19924;-84
2023/08/09 09:39:17;;;;;;;;;;;;;;;24.53;38.94;101331.63;5021212;28;19922;-84
2023/08/09 09:41:49;;;;;;;;;;;;;;;24.48;38.97;101318.13;5018379;28;19917;-84
2023/08/09 09:44:18;;;;;;;;;;;;;;;24.47;38.50;101315.72;5023569;28;19992;-85
2023/08/09 09:46:43;;;;;;;;;;;;;;;24.45;38.84;101307.84;5022160;28;19956;-83
2023/08/09 09:49:08;;;;;;;;;;;;;;;24.48;38.73;101309.91;5020811;28;19960;-83
2023/08/09 09:51:35;;;;;;;;;;;;;;;24.61;38.69;101316.31;5022436;28;20071;-84
2023/08/09 09:54:00;;;;;;;;;;;;;;;24.63;38.52;101328.56;5028875;28;20412;-87
2023/08/09 09:56:25;;;;;;;;;;;;;;;24.73;38.91;101330.09;5028392;28;19933;-86
2023/08/09 09:58:50;;;;;;;;;;;;;;;24.88;38.74;101332.28;5017895;28;19918;-87
2023/08/09 10:01:20;;;;;;;;;;;;;;;24.96;37.97;101328.72;5025585;28;20404;-82
2023/08/09 10:03:48;;;;;;;;;;;;;;;25.13;38.20;101316.84;5022298;28;19921;-87
2023/08/09 10:06:27;;;;;;;;;;;;;;;25.19;38.16;101320.22;5027959;28;19921;-85
2023/08/09 10:08:53;;;;;;;;;;;;;;;25.18;38.19;101318.63;5027272;28;20492;-86
2023/08/09 10:11:21;;;;;;;;;;;;;;;25.20;37.96;101324.56;5023530;28;20398;-86
2023/08/09 10:13:47;;;;;;;;;;;;;;;25.13;37.93;101321.53;5021355;28;20338;-87
2023/08/09 10:16:13;;;;;;;;;;;;;;;25.09;37.94;101315.91;5020775;28;19921;-86
2023/08/09 10:18:47;;;;;;;;;;;;;;;25.18;38.34;101335.88;5025641;28;19917;-85
2023/08/09 10:21:14;;;;;;;;;;;;;;;25.22;37.69;101325.03;5004523;28;19921;-84
2023/08/09 10:23:53;;;;;;;;;;;;;;;25.15;37.99;101330.25;5029569;28;20360;-85
2023/08/09 10:26:25;;;;;;;;;;;;;;;25.16;37.86;101329.91;5027169;28;19971;-86
2023/08/09 10:28:50;;;;;;;;;;;;;;;25.29;37.82;101330.78;5024333;28;19933;-86
2023/08/09 10:31:35;;;;;;;;;;;;;;;25.44;37.48;101332.94;5027004;28;20094;-83
2023/08/09 10:34:07;;;;;;;;;;;;;;;25.59;37.23;101340.56;5024775;28;19952;-82
2023/08/09 10:36:33;;;;;;;;;;;;;;;25.76;37.20;101322.38;5024177;28;20385;-85
2023/08/09 10:38:58;;;;;;;;;;;;;;;25.87;36.72;101323.59;5025214;28;20000;-85
2023/08/09 10:41:26;;;;;;;;;;;;;;;25.82;36.38;101324.56;5025664;28;19936;-85
2023/08/09 10:44:00;;;;;;;;;;;;;;;25.77;36.42;101332.22;5028146;28;20004;-85
2023/08/09 10:46:26;;;;;;;;;;;;;;;25.71;36.71;101333.56;5022317;28;19933;-86
2023/08/09 10:48:52;;;;;;;;;;;;;;;25.78;36.42;101325.59;5023968;28;19925;-84
2023/08/09 10:51:19;;;;;;;;;;;;;;;25.76;36.30;101325.94;5022087;28;19921;-85
2023/08/09 10:54:01;;;;;;;;;;;;;;;25.73;36.61;101336.78;5024740;28;20614;-85
2023/08/09 10:56:42;;;;;;;;;;;;;;;25.78;36.45;101333.81;5021767;28;19932;-86
2023/08/09 10:59:07;;;;;;;;;;;;;;;25.95;36.57;101333.66;5021984;28;19932;-84
2023/08/09 11:01:33;;;;;;;;;;;;;;;26.07;36.18;101319.97;5025522;28;19917;-82
2023/08/09 11:03:59;;;;;;;;;;;;;;;26.22;36.22;101315.78;5022825;28;20485;-83
2023/08/09 11:06:37;;;;;;;;;;;;;;;26.36;36.23;101318.22;5018289;28;20023;-84
2023/08/09 11:09:11;;;;;;;;;;;;;;;26.45;36.03;101318.94;5024512;28;19939;-82
2023/08/09 11:11:37;;;;;;;;;;;;;;;26.53;35.89;101323.53;5024991;28;19921;-84
2023/08/09 11:14:03;;;;;;;;;;;;;;;26.64;35.54;101310.16;5020303;28;19959;-81
2023/08/09 11:16:29;;;;;;;;;;;;;;;26.71;35.24;101313.91;5022856;28;19999;-82
2023/08/09 11:19:04;;;;;;;;;;;;;;;26.80;34.99;101319.31;5024726;28;20013;-80
2023/08/09 11:21:39;;;;;;;;;;;;;;;26.80;34.90;101322.84;5021261;28;19921;-81
2023/08/09 11:24:07;;;;;;;;;;;;;;;26.93;35.37;101320.09;5022727;28;20637;-82
2023/08/09 11:26:32;;;;;;;;;;;;;;;27.00;34.56;101323.91;5019800;28;20008;-82
2023/08/09 11:29:00;;;;;;;;;;;;;;;27.06;34.04;101318.97;5018908;28;20000;-83
2023/08/09 11:31:25;;;;;;;;;;;;;;;27.21;34.59;101317.47;5024362;28;20016;-83
2023/08/09 11:33:55;;;;;;;;;;;;;;;27.32;33.12;101311.13;5024093;28;20012;-83
2023/08/09 11:36:20;;;;;;;;;;;;;;;27.42;33.94;101326.34;5020257;28;19921;-83
2023/08/09 11:38:46;;;;;;;;;;;;;;;27.48;34.02;101310.41;5020394;28;19918;-86
2023/08/09 11:41:15;;;;;;;;;;;;;;;27.57;34.13;101339.38;5019034;28;20600;-83
2023/08/09 11:43:40;;;;;;;;;;;;;;;27.62;33.00;101332.81;5019273;28;19927;-83
2023/08/09 11:46:05;;;;;;;;;;;;;;;27.51;33.19;101337.22;5018586;28;19921;-84
2023/08/09 11:48:35;;;;;;;;;;;;;;;27.34;33.45;101339.09;5022854;28;19940;-84
2023/08/09 11:51:05;;;;;;;;;;;;;;;27.15;33.85;101338.91;4998762;28;19928;-84
2023/08/09 11:53:32;;;;;;;;;;;;;;;27.07;33.33;101346.13;5023039;28;20320;-81
2023/08/09 11:55:58;;;;;;;;;;;;;;;27.05;34.08;101351.16;5022990;28;19924;-82
2023/08/09 11:58:23;;;;;;;;;;;;;;;26.98;34.62;101361.13;5023875;28;20596;-83
2023/08/09 12:00:49;;;;;;;;;;;;;;;26.94;34.79;101369.25;5020658;28;20039;-83
2023/08/09 12:03:19;;;;;;;;;;;;;;;26.80;35.24;101377.03;5025467;28;20491;-83
2023/08/09 12:05:44;;;;;;;;;;;;;;;26.63;36.12;101378.06;5022194;28;19925;-84
2023/08/09 12:08:10;;;;;;;;;;;;;;;26.54;36.59;101369.09;5021144;28;20300;-84
2023/08/09 12:10:40;;;;;;;;;;;;;;;26.53;36.62;101378.47;5022829;28;19921;-84
2023/08/09 12:13:05;;;;;;;;;;;;;;;26.61;37.17;101368.53;5020477;28;19930;-84
2023/08/09 12:15:31;;;;;;;;;;;;;;;26.73;37.70;101382.28;5004504;28;20581;-84
2023/08/09 12:17:57;;;;;;;;;;;;;;;26.84;36.86;101379.91;5017636;28;19917;-84
2023/08/09 12:20:23;;;;;;;;;;;;;;;26.83;36.95;101375.56;5021842;28;19936;-84
2023/08/09 12:22:48;;;;;;;;;;;;;;;26.84;36.37;101377.16;5023713;28;21250;-83
2023/08/09 12:25:13;;;;;;;;;;;;;;;26.79;36.74;101376.25;5022748;28;19974;-83
2023/08/09 12:27:39;;;;;;;;;;;;;;;26.83;36.90;101381.84;5020524;28;19921;-84
2023/08/09 12:30:05;;;;;;;;;;;;;;;26.86;36.55;101377.59;5023234;28;20134;-84
2023/08/09 12:32:31;;;;;;;;;;;;;;;26.91;36.49;101383.66;5019996;28;19917;-84